Disclaimer

Please do not use the information listed here in-flight or in-navigation, as they are not provided to us by the airports but are provided by volunteers, so they might be outdated.

Search


Regions


Airport information page

Radio informations:
MARSAN TWR - 142.75 MHz
MARSAN APP - 142.45 MHz

Airport informations:
Latitude: 43° 54' 42.00" N
Longitude: 000° 30' 27.00" W
Elevation: 203 feet - 62 meters
Operating hours: Remarks
Operating agency: Military
Timezone: UTC+1(+2DT) - Last Sunday in March to last Sunday in October
Fuel: Jet A1+, Jet A1 with icing inhibitor.

Jet A1, without icing nhibitor.

100/130 MIL Spec, low lead, aviation gasoline (BLUE)

Runway information:
09/27 - 11821 x 148 feet< - >3603 x 45 meters

Recent METARs:
LFBM 210330Z AUTO 03003KT 7000 NSC 00/00 Q1007 TEMPO 0800 BCFG
LFBM 210400Z AUTO 04003KT 7000 BKN048 BKN110 00/00 Q1007 TEMPO 0800 BCFG
LFBM 210430Z AUTO 06004KT 6000 -RA OVC045 01/01 Q1007 TEMPO 0800 BCFG

Airport on the map: